createdAt,value
2022-09-07T00:00:44.363Z,20.85
2022-09-07T00:01:44.400Z,20.82
2022-09-07T00:02:44.514Z,20.83
2022-09-07T00:03:44.487Z,20.85
2022-09-07T00:04:44.578Z,20.86
2022-09-07T00:05:44.576Z,20.86
2022-09-07T00:06:44.624Z,20.89
2022-09-07T00:07:44.662Z,20.95
2022-09-07T00:08:44.714Z,21.05
2022-09-07T00:09:44.746Z,21.10
2022-09-07T00:10:44.786Z,21.11
2022-09-07T00:11:44.837Z,21.10
2022-09-07T00:12:44.887Z,21.11
2022-09-07T00:13:44.927Z,21.15
2022-09-07T00:14:44.978Z,21.19
2022-09-07T00:15:45.082Z,21.19
2022-09-07T00:16:45.038Z,21.20
2022-09-07T00:17:45.145Z,21.19
2022-09-07T00:18:46.217Z,21.20
2022-09-07T00:19:45.192Z,21.25
2022-09-07T00:20:45.230Z,21.22
2022-09-07T00:21:45.269Z,21.22
2022-09-07T00:22:45.311Z,21.22
2022-09-07T00:23:45.370Z,21.20
2022-09-07T00:24:45.424Z,21.19
2022-09-07T00:25:45.469Z,21.20
2022-09-07T00:26:45.515Z,21.20
2022-09-07T00:27:45.562Z,21.19
2022-09-07T00:28:45.634Z,21.19
2022-09-07T00:29:45.613Z,21.17
2022-09-07T00:30:45.653Z,21.23
2022-09-07T00:31:45.755Z,21.26
2022-09-07T00:32:45.724Z,21.28
2022-09-07T00:33:45.803Z,21.32
2022-09-07T00:34:45.834Z,21.35
2022-09-07T00:35:45.886Z,21.37
2022-09-07T00:36:45.979Z,21.40
2022-09-07T00:37:45.926Z,21.40
2022-09-07T00:38:45.989Z,21.38
2022-09-07T00:39:46.107Z,21.38
2022-09-07T00:40:46.058Z,21.38
2022-09-07T00:41:46.077Z,21.41
2022-09-07T00:42:46.088Z,21.44
2022-09-07T00:43:46.109Z,21.47
2022-09-07T00:44:46.189Z,21.53
2022-09-07T00:45:46.163Z,21.56
2022-09-07T00:46:46.263Z,21.59
2022-09-07T00:47:46.180Z,21.56
2022-09-07T00:48:46.169Z,21.54
2022-09-07T00:49:46.240Z,21.53
2022-09-07T00:50:46.291Z,21.54
2022-09-07T00:51:46.331Z,21.53
2022-09-07T00:52:46.457Z,21.53
2022-09-07T00:53:46.425Z,21.50
2022-09-07T00:54:46.452Z,21.50
2022-09-07T00:55:46.502Z,21.50
2022-09-07T00:56:46.543Z,21.50
2022-09-07T00:57:46.574Z,21.54
2022-09-07T00:58:46.575Z,21.53
2022-09-07T00:59:46.593Z,21.54
2022-09-07T01:00:46.645Z,21.54
2022-09-07T01:01:46.704Z,21.58
2022-09-07T01:02:46.952Z,21.59
2022-09-07T01:03:46.675Z,21.58
2022-09-07T01:04:46.726Z,21.58
2022-09-07T01:05:46.756Z,21.63
2022-09-07T01:06:46.777Z,21.63
2022-09-07T01:07:46.864Z,21.65
2022-09-07T01:08:46.920Z,21.65
2022-09-07T01:09:46.928Z,21.65
2022-09-07T01:10:46.948Z,21.68
2022-09-07T01:11:47.010Z,21.68
2022-09-07T01:12:46.998Z,21.68
2022-09-07T01:13:47.040Z,21.69
2022-09-07T01:14:47.090Z,21.68
2022-09-07T01:15:47.201Z,21.69
2022-09-07T01:16:47.160Z,21.69
2022-09-07T01:17:47.203Z,21.70
2022-09-07T01:18:47.240Z,21.72
2022-09-07T01:19:47.242Z,21.75
2022-09-07T01:20:47.322Z,21.77
2022-09-07T01:21:47.322Z,21.77
2022-09-07T01:22:47.333Z,21.75
2022-09-07T01:23:47.370Z,21.75
2022-09-07T01:24:47.415Z,21.72
2022-09-07T01:25:47.425Z,21.70
2022-09-07T01:26:47.405Z,21.69
2022-09-07T01:27:47.385Z,21.68
2022-09-07T01:28:47.394Z,21.66
2022-09-07T01:29:47.395Z,21.65
2022-09-07T01:30:47.528Z,21.68
2022-09-07T01:31:47.516Z,21.66
2022-09-07T01:32:47.576Z,21.65
2022-09-07T01:33:47.617Z,21.60
2022-09-07T01:34:47.678Z,21.60
2022-09-07T01:35:47.680Z,21.58
2022-09-07T01:36:47.732Z,21.56
2022-09-07T01:37:47.775Z,21.54
2022-09-07T01:38:47.778Z,21.53
2022-09-07T01:39:47.889Z,21.51
2022-09-07T01:40:47.850Z,21.51
2022-09-07T01:41:47.898Z,21.47
2022-09-07T01:42:47.911Z,21.45
2022-09-07T01:43:47.954Z,21.45
2022-09-07T01:44:47.992Z,21.44
2022-09-07T01:45:48.051Z,21.43
2022-09-07T01:46:48.145Z,21.41
2022-09-07T01:47:48.112Z,21.40
2022-09-07T01:48:48.172Z,21.37
2022-09-07T01:49:48.220Z,21.35
2022-09-07T01:50:48.264Z,21.32
2022-09-07T01:51:48.295Z,21.28
2022-09-07T01:52:48.315Z,21.23
2022-09-07T01:53:48.356Z,21.15
2022-09-07T01:54:48.376Z,21.11
2022-09-07T01:55:48.417Z,21.10
2022-09-07T01:56:48.406Z,21.05
2022-09-07T01:57:48.476Z,21.03
2022-09-07T01:58:48.509Z,20.98
2022-09-07T01:59:48.567Z,20.93
2022-09-07T02:00:48.589Z,20.86
2022-09-07T02:01:48.637Z,20.73
2022-09-07T02:02:48.811Z,20.58
2022-09-07T02:03:48.719Z,20.36
2022-09-07T02:04:48.693Z,20.19
2022-09-07T02:05:48.760Z,20.04
2022-09-07T02:06:48.771Z,19.92
2022-09-07T02:07:48.790Z,19.78
2022-09-07T02:08:48.871Z,19.70
2022-09-07T02:09:48.939Z,19.57
2022-09-07T02:10:48.972Z,19.49
2022-09-07T02:11:48.971Z,19.45
2022-09-07T02:12:49.032Z,19.39
2022-09-07T02:13:49.052Z,19.32
2022-09-07T02:14:52.483Z,19.29
2022-09-07T02:15:49.188Z,19.26
2022-09-07T02:16:49.164Z,19.19
2022-09-07T02:17:49.194Z,19.19
2022-09-07T02:18:49.265Z,19.15
2022-09-07T02:19:49.273Z,19.07
2022-09-07T02:20:49.264Z,19.00
2022-09-07T02:21:49.409Z,18.97
2022-09-07T02:22:49.325Z,18.96
2022-09-07T02:23:49.376Z,18.96
2022-09-07T02:24:49.446Z,18.89
2022-09-07T02:25:49.563Z,18.85
2022-09-07T02:26:49.557Z,18.81
2022-09-07T02:27:49.580Z,18.76
2022-09-07T02:28:49.662Z,18.78
2022-09-07T02:29:49.627Z,18.76
2022-09-07T02:30:49.726Z,18.74
2022-09-07T02:31:49.669Z,18.73
2022-09-07T02:32:49.722Z,18.68
2022-09-07T02:33:49.800Z,18.66
2022-09-07T02:34:49.850Z,18.64
2022-09-07T02:35:49.908Z,18.58
2022-09-07T02:36:49.952Z,18.58
2022-09-07T02:37:50.001Z,18.55
2022-09-07T02:38:50.071Z,18.53
2022-09-07T02:39:50.152Z,18.51
2022-09-07T02:40:50.171Z,18.51
2022-09-07T02:41:50.132Z,18.49
2022-09-07T02:42:50.181Z,18.48
2022-09-07T02:43:50.242Z,18.46
2022-09-07T02:44:50.293Z,18.48
2022-09-07T02:45:50.369Z,18.46
2022-09-07T02:46:50.354Z,18.46
2022-09-07T02:47:50.407Z,18.46
2022-09-07T02:48:50.455Z,18.43
2022-09-07T02:49:50.515Z,18.41
2022-09-07T02:50:50.570Z,18.42
2022-09-07T02:51:50.616Z,18.41
2022-09-07T02:52:50.666Z,18.37
2022-09-07T02:53:50.716Z,18.34
2022-09-07T02:54:50.777Z,18.31
2022-09-07T02:55:50.837Z,18.31
2022-09-07T02:56:50.878Z,18.30
2022-09-07T02:57:50.928Z,18.30
2022-09-07T02:58:50.968Z,18.24
2022-09-07T02:59:51.008Z,18.24
2022-09-07T03:00:51.057Z,18.23
2022-09-07T03:01:51.228Z,18.24
2022-09-07T03:02:51.181Z,18.24
2022-09-07T03:03:51.112Z,18.24
2022-09-07T03:04:51.153Z,18.21
2022-09-07T03:05:51.192Z,18.21
2022-09-07T03:06:51.240Z,18.18
2022-09-07T03:07:51.313Z,18.21
2022-09-07T03:08:52.142Z,18.21
2022-09-07T03:09:51.368Z,18.19
2022-09-07T03:10:51.402Z,18.18
2022-09-07T03:11:51.442Z,18.18
2022-09-07T03:12:51.484Z,18.18
2022-09-07T03:13:51.524Z,18.15
2022-09-07T03:14:51.585Z,18.16
2022-09-07T03:15:55.756Z,18.15
2022-09-07T03:16:51.708Z,18.13
2022-09-07T03:17:51.734Z,18.12
2022-09-07T03:18:51.777Z,18.12
2022-09-07T03:19:51.843Z,18.13
2022-09-07T03:20:51.885Z,18.12
2022-09-07T03:21:51.916Z,18.13
2022-09-07T03:22:51.968Z,18.13
2022-09-07T03:23:52.083Z,18.13
2022-09-07T03:24:52.036Z,18.15
2022-09-07T03:25:52.087Z,18.12
2022-09-07T03:26:52.138Z,18.15
2022-09-07T03:27:52.178Z,18.15
2022-09-07T03:28:52.228Z,18.18
2022-09-07T03:29:52.259Z,18.18
2022-09-07T03:30:52.371Z,18.18
2022-09-07T03:31:52.340Z,18.21
2022-09-07T03:32:52.381Z,18.23
2022-09-07T03:33:52.420Z,18.23
2022-09-07T03:34:52.481Z,18.23
2022-09-07T03:35:52.551Z,18.24
2022-09-07T03:36:52.602Z,18.24
2022-09-07T03:37:52.632Z,18.27
2022-09-07T03:38:52.682Z,18.26
2022-09-07T03:39:52.764Z,18.27
2022-09-07T03:40:52.742Z,18.26
2022-09-07T03:41:52.793Z,18.21
2022-09-07T03:42:52.834Z,18.21
2022-09-07T03:43:52.886Z,18.18
2022-09-07T03:44:52.945Z,18.15
2022-09-07T03:45:53.026Z,18.08
2022-09-07T03:46:53.055Z,18.03
2022-09-07T03:47:53.095Z,18.02
2022-09-07T03:48:53.147Z,17.94
2022-09-07T03:49:53.190Z,17.94
2022-09-07T03:50:53.236Z,17.91
2022-09-07T03:51:53.276Z,17.90
2022-09-07T03:52:53.329Z,17.90
2022-09-07T03:53:53.367Z,17.88
2022-09-07T03:54:53.407Z,17.87
2022-09-07T03:55:53.469Z,17.80
2022-09-07T03:56:53.520Z,17.79
2022-09-07T03:57:53.579Z,17.80
2022-09-07T03:58:53.626Z,17.79
2022-09-07T03:59:53.673Z,17.78
2022-09-07T04:00:53.709Z,17.73
2022-09-07T04:01:53.810Z,17.71
2022-09-07T04:02:53.867Z,17.69
2022-09-07T04:03:53.821Z,17.65
2022-09-07T04:04:53.879Z,17.63
2022-09-07T04:05:53.941Z,17.60
2022-09-07T04:06:53.982Z,17.57
2022-09-07T04:07:54.044Z,17.54
2022-09-07T04:08:54.102Z,17.53
2022-09-07T04:09:54.150Z,17.52
2022-09-07T04:10:54.212Z,17.52
2022-09-07T04:11:54.264Z,17.54
2022-09-07T04:12:54.320Z,17.56
2022-09-07T04:13:54.394Z,17.54
2022-09-07T04:14:54.362Z,17.56
2022-09-07T04:15:54.435Z,17.59
2022-09-07T04:16:54.495Z,17.57
2022-09-07T04:17:54.475Z,17.57
2022-09-07T04:18:54.535Z,17.57
2022-09-07T04:19:54.589Z,17.57
2022-09-07T04:20:54.679Z,17.57
2022-09-07T04:21:54.647Z,17.56
2022-09-07T04:22:54.724Z,17.56
2022-09-07T04:23:54.687Z,17.54
2022-09-07T04:24:54.738Z,17.53
2022-09-07T04:25:54.788Z,17.54
2022-09-07T04:26:54.876Z,17.50
2022-09-07T04:27:54.918Z,17.52
2022-09-07T04:28:54.968Z,17.52
2022-09-07T04:29:55.024Z,17.49
2022-09-07T04:30:55.140Z,17.50
2022-09-07T04:31:55.059Z,17.47
2022-09-07T04:32:55.109Z,17.46
2022-09-07T04:33:55.131Z,17.47
2022-09-07T04:34:55.119Z,17.44
2022-09-07T04:35:55.111Z,17.44
2022-09-07T04:36:55.102Z,17.47
2022-09-07T04:37:55.102Z,17.47
2022-09-07T04:38:55.112Z,17.46
2022-09-07T04:39:55.160Z,17.46
2022-09-07T04:40:55.123Z,17.46
2022-09-07T04:41:55.123Z,17.46
2022-09-07T04:42:55.127Z,17.46
2022-09-07T04:43:55.123Z,17.46
2022-09-07T04:44:55.114Z,17.49
2022-09-07T04:45:55.150Z,17.49
2022-09-07T04:46:55.124Z,17.46
2022-09-07T04:47:55.116Z,17.42
2022-09-07T04:48:55.135Z,17.39
2022-09-07T04:49:55.136Z,17.41
2022-09-07T04:50:55.147Z,17.41
2022-09-07T04:51:55.118Z,17.39
2022-09-07T04:52:55.191Z,17.37
2022-09-07T04:53:55.248Z,17.35
2022-09-07T04:54:55.227Z,17.37
2022-09-07T04:55:55.297Z,17.37
2022-09-07T04:56:55.380Z,17.35
2022-09-07T04:57:55.358Z,17.37
2022-09-07T04:58:55.434Z,17.37
2022-09-07T04:59:55.517Z,17.37
2022-09-07T05:00:55.533Z,17.38
2022-09-07T05:01:55.557Z,17.42
2022-09-07T05:02:55.510Z,17.42
2022-09-07T05:03:55.511Z,17.42
2022-09-07T05:04:58.377Z,17.44
2022-09-07T05:05:55.531Z,17.39
2022-09-07T05:06:55.561Z,17.41
2022-09-07T05:07:55.594Z,17.39
2022-09-07T05:08:55.602Z,17.39
2022-09-07T05:09:55.586Z,17.42
2022-09-07T05:10:55.586Z,17.39
2022-09-07T05:11:55.623Z,17.39
2022-09-07T05:12:55.643Z,17.42
2022-09-07T05:13:55.633Z,17.41
2022-09-07T05:14:55.654Z,17.41
2022-09-07T05:15:55.690Z,17.42
2022-09-07T05:16:55.721Z,17.44
2022-09-07T05:17:55.695Z,17.46
2022-09-07T05:18:55.717Z,17.49
2022-09-07T05:19:55.765Z,17.50
2022-09-07T05:20:55.807Z,17.50
2022-09-07T05:21:55.826Z,17.52
2022-09-07T05:22:55.867Z,17.52
2022-09-07T05:23:55.919Z,17.52
2022-09-07T05:24:55.948Z,17.50
2022-09-07T05:25:56.008Z,17.47
2022-09-07T05:26:56.060Z,17.49
2022-09-07T05:27:56.088Z,17.52
2022-09-07T05:30:04.509Z,17.57
2022-09-07T05:31:56.201Z,17.57
2022-09-07T05:32:56.201Z,17.56
2022-09-07T05:34:56.280Z,17.63
2022-09-07T05:35:56.341Z,17.66
2022-09-07T05:36:56.424Z,17.66
2022-09-07T05:37:56.432Z,17.65
2022-09-07T05:38:56.442Z,17.63
2022-09-07T05:39:56.533Z,17.63
2022-09-07T05:40:56.483Z,17.68
2022-09-07T05:41:56.533Z,17.73
2022-09-07T05:42:56.538Z,17.72
2022-09-07T05:44:56.596Z,17.73
2022-09-07T05:45:56.716Z,17.79
2022-09-07T05:46:56.685Z,17.76
2022-09-07T05:47:56.725Z,17.78
2022-09-07T05:48:56.795Z,17.79
2022-09-07T05:49:57.340Z,17.80
2022-09-07T05:50:56.846Z,17.87
2022-09-07T05:51:56.903Z,17.86
2022-09-07T05:52:56.917Z,17.87
2022-09-07T05:53:56.897Z,17.93
2022-09-07T05:55:07.750Z,17.95
2022-09-07T05:55:56.908Z,17.95
2022-09-07T05:56:56.998Z,17.95
2022-09-07T05:57:57.010Z,17.97
2022-09-07T05:58:56.999Z,17.98
2022-09-07T05:59:56.999Z,17.98
2022-09-07T06:00:57.031Z,17.93
2022-09-07T06:01:57.106Z,17.94
2022-09-07T06:02:57.099Z,17.93
2022-09-07T06:03:57.051Z,17.97
2022-09-07T06:04:57.050Z,17.98
2022-09-07T06:05:57.042Z,17.97
2022-09-07T06:07:57.042Z,18.03
2022-09-07T06:08:57.144Z,18.08
2022-09-07T06:10:57.192Z,18.13
2022-09-07T06:11:57.184Z,18.19
2022-09-07T06:12:57.184Z,18.21
2022-09-07T06:13:57.201Z,18.31
2022-09-07T06:14:57.209Z,18.39
2022-09-07T06:15:57.247Z,18.42
2022-09-07T06:16:57.345Z,18.48
2022-09-07T06:17:57.307Z,18.43
2022-09-07T06:18:57.316Z,18.51
2022-09-07T06:19:57.361Z,18.55
2022-09-07T06:20:57.367Z,18.63
2022-09-07T06:21:57.377Z,18.68
2022-09-07T06:22:57.378Z,18.74
2022-09-07T06:23:57.398Z,18.82
2022-09-07T06:24:57.419Z,18.94
2022-09-07T06:25:57.418Z,19.12
2022-09-07T06:26:57.420Z,19.26
2022-09-07T06:27:57.514Z,19.42
2022-09-07T06:28:58.093Z,19.53
2022-09-07T06:29:57.440Z,19.60
2022-09-07T06:30:57.440Z,19.72
2022-09-07T06:32:57.473Z,20.12
2022-09-07T06:33:57.526Z,20.48
2022-09-07T06:34:57.566Z,20.60
2022-09-07T06:35:57.615Z,20.86
2022-09-07T06:36:57.623Z,20.80
2022-09-07T06:37:57.684Z,20.80
2022-09-07T06:38:57.748Z,20.95
2022-09-07T06:39:57.811Z,20.89
2022-09-07T06:42:58.167Z,21.17
2022-09-07T06:43:58.046Z,21.29
2022-09-07T06:44:58.061Z,21.35
2022-09-07T06:47:58.180Z,21.70
2022-09-07T06:48:58.158Z,21.68
2022-09-07T06:49:58.188Z,21.72
2022-09-07T06:50:58.231Z,22.04
2022-09-07T06:51:58.295Z,22.52
2022-09-07T06:55:58.329Z,22.21
2022-09-07T06:56:58.331Z,22.38
2022-09-07T06:57:58.331Z,22.47
2022-09-07T06:58:58.355Z,22.38
2022-09-07T06:59:58.432Z,22.14
2022-09-07T07:00:58.455Z,22.14
2022-09-07T07:01:58.415Z,22.33
2022-09-07T07:02:58.583Z,22.44
2022-09-07T07:03:58.506Z,22.61
2022-09-07T07:04:58.686Z,22.92
2022-09-07T07:05:58.661Z,23.26
2022-09-07T07:06:58.676Z,23.64
2022-09-07T07:07:58.668Z,23.91
2022-09-07T07:08:58.774Z,23.88
2022-09-07T07:09:58.809Z,23.66
2022-09-07T07:10:58.911Z,23.82
2022-09-07T07:11:58.887Z,23.77
2022-09-07T07:12:58.925Z,23.52
2022-09-07T07:13:58.891Z,23.29
2022-09-07T07:14:58.919Z,23.11
2022-09-07T07:15:58.986Z,22.96
2022-09-07T07:16:59.002Z,23.33
2022-09-07T07:18:05.387Z,23.21
2022-09-07T07:18:59.010Z,23.34
2022-09-07T07:19:59.024Z,23.16
2022-09-07T07:20:59.026Z,23.79
2022-09-07T07:22:14.351Z,24.31
2022-09-07T07:22:59.142Z,24.47
2022-09-07T07:23:59.147Z,24.36
2022-09-07T07:24:59.141Z,23.92
2022-09-07T07:25:59.156Z,24.00
2022-09-07T07:26:59.156Z,24.28
2022-09-07T07:29:59.307Z,24.48
2022-09-07T07:30:59.277Z,24.22
2022-09-07T07:31:59.265Z,24.32
2022-09-07T07:32:59.308Z,24.26
2022-09-07T07:33:59.550Z,23.79
2022-09-07T07:34:59.379Z,23.51
2022-09-07T07:35:59.400Z,23.28
2022-09-07T07:36:59.400Z,23.16
2022-09-07T07:39:00.218Z,23.37
2022-09-07T07:40:15.789Z,23.45
2022-09-07T07:42:03.109Z,23.85
2022-09-07T07:42:59.625Z,23.84
2022-09-07T07:44:00.518Z,23.89
2022-09-07T07:46:01.274Z,24.04
2022-09-07T07:46:59.837Z,24.51
2022-09-07T07:47:59.772Z,24.89
2022-09-07T07:48:59.896Z,25.21
2022-09-07T07:51:02.663Z,25.41
2022-09-07T07:54:00.334Z,25.06
2022-09-07T07:55:00.299Z,24.44
2022-09-07T07:56:00.079Z,24.37
2022-09-07T07:57:00.090Z,23.99
2022-09-07T07:58:00.042Z,24.10
2022-09-07T07:59:00.045Z,23.86
2022-09-07T08:00:00.070Z,23.77
2022-09-07T08:01:00.196Z,23.74
2022-09-07T08:02:00.319Z,23.89
2022-09-07T08:03:00.223Z,24.68
2022-09-07T08:04:00.291Z,24.81
2022-09-07T08:05:00.269Z,24.48
2022-09-07T08:06:00.333Z,24.34
2022-09-07T08:07:00.359Z,24.06
2022-09-07T08:08:00.353Z,24.38
2022-09-07T08:09:00.357Z,24.13
2022-09-07T08:10:00.418Z,24.56
2022-09-07T08:11:00.449Z,24.25
2022-09-07T08:12:00.490Z,23.86
2022-09-07T08:13:00.571Z,23.56
2022-09-07T08:14:00.510Z,23.14
2022-09-07T08:15:00.542Z,23.63
2022-09-07T08:16:00.614Z,24.22
2022-09-07T08:17:00.676Z,24.97
2022-09-07T08:18:00.713Z,25.44
2022-09-07T08:19:00.743Z,26.08
2022-09-07T08:20:00.732Z,25.98
2022-09-07T08:21:00.745Z,26.11
2022-09-07T08:22:00.744Z,25.61
2022-09-07T08:23:00.788Z,25.74
2022-09-07T08:24:00.812Z,25.81
2022-09-07T08:25:00.773Z,26.24
2022-09-07T08:26:00.785Z,25.86
2022-09-07T08:27:00.856Z,26.08
2022-09-07T08:28:00.919Z,25.34
2022-09-07T08:29:00.907Z,25.68
2022-09-07T08:30:00.938Z,25.24
2022-09-07T08:31:00.991Z,25.49
2022-09-07T08:32:01.042Z,25.73
2022-09-07T08:33:01.060Z,25.15
2022-09-07T08:34:01.780Z,24.69
2022-09-07T08:35:01.122Z,24.28
2022-09-07T08:36:01.089Z,24.03
2022-09-07T08:37:01.141Z,23.89
2022-09-07T08:38:01.185Z,23.84
2022-09-07T08:39:01.166Z,23.81
2022-09-07T08:40:01.307Z,23.89
2022-09-07T08:41:01.290Z,24.00
2022-09-07T08:42:01.324Z,24.31
2022-09-07T08:43:01.354Z,24.59
2022-09-07T08:44:01.425Z,25.06
2022-09-07T08:45:01.446Z,25.25
2022-09-07T08:46:01.477Z,25.16
2022-09-07T08:47:01.594Z,25.55
2022-09-07T08:48:01.549Z,25.36
2022-09-07T08:49:01.595Z,25.76
2022-09-07T08:50:01.697Z,24.88
2022-09-07T08:51:01.590Z,24.92
2022-09-07T08:52:01.649Z,25.09
2022-09-07T08:53:01.691Z,25.07
2022-09-07T08:54:01.710Z,24.99
2022-09-07T08:55:01.761Z,24.79
2022-09-07T08:56:01.835Z,25.01
2022-09-07T08:58:01.903Z,27.20
2022-09-07T08:59:01.963Z,27.61
2022-09-07T09:00:02.064Z,27.52
2022-09-07T09:04:18.704Z,28.41
2022-09-07T09:06:02.412Z,28.40
2022-09-07T09:06:11.117Z,27.71
2022-09-07T09:07:02.451Z,28.20
2022-09-07T09:08:02.341Z,28.77
2022-09-07T09:09:02.318Z,28.89
2022-09-07T09:10:02.348Z,28.68
2022-09-07T09:11:02.391Z,28.72
2022-09-07T09:12:02.459Z,28.64
2022-09-07T09:13:02.429Z,28.96
2022-09-07T09:14:02.482Z,28.62
2022-09-07T09:15:02.506Z,27.78
2022-09-07T09:16:02.557Z,27.57
2022-09-07T09:17:02.553Z,28.08
2022-09-07T09:18:02.554Z,28.38
2022-09-07T09:19:03.496Z,28.01
2022-09-07T09:20:02.614Z,28.38
2022-09-07T09:21:02.614Z,27.88
2022-09-07T09:22:02.634Z,27.63
2022-09-07T09:23:02.685Z,27.29
2022-09-07T09:24:02.685Z,26.48
2022-09-07T09:25:02.758Z,26.08
2022-09-07T09:26:02.754Z,26.34
2022-09-07T09:27:02.767Z,26.30
2022-09-07T09:28:02.767Z,25.96
2022-09-07T09:29:02.768Z,25.89
2022-09-07T09:30:02.826Z,26.33
2022-09-07T09:31:02.907Z,27.16
2022-09-07T09:32:02.853Z,27.35
2022-09-07T09:33:02.876Z,27.66
2022-09-07T09:34:02.881Z,28.08
2022-09-07T09:35:02.872Z,28.47
2022-09-07T09:36:02.946Z,28.92
2022-09-07T09:37:03.010Z,29.42
2022-09-07T09:38:03.004Z,29.34
2022-09-07T09:39:02.993Z,28.33
2022-09-07T09:40:03.315Z,27.34
2022-09-07T09:41:04.003Z,26.44
2022-09-07T09:42:03.106Z,25.66
2022-09-07T09:43:03.155Z,25.24
2022-09-07T09:44:03.345Z,25.18
2022-09-07T09:45:03.246Z,26.10
2022-09-07T09:46:18.941Z,26.15
2022-09-07T09:48:03.372Z,27.41
2022-09-07T09:49:03.360Z,28.20
2022-09-07T09:50:03.359Z,28.33
2022-09-07T09:53:03.410Z,28.83
2022-09-07T09:54:03.421Z,28.49
2022-09-07T09:55:30.140Z,28.20
2022-09-07T09:56:03.484Z,27.71
2022-09-07T09:57:03.546Z,27.29
2022-09-07T09:59:05.308Z,26.79
2022-09-07T10:00:08.526Z,27.08
2022-09-07T10:04:06.338Z,26.49
2022-09-07T10:05:03.766Z,25.81
2022-09-07T10:06:03.721Z,25.33
2022-09-07T10:07:03.770Z,25.09
2022-09-07T10:08:03.804Z,24.89
2022-09-07T10:09:03.819Z,25.11
2022-09-07T10:10:03.892Z,25.73
2022-09-07T10:11:03.919Z,26.22
2022-09-07T10:12:05.597Z,26.66
2022-09-07T10:13:03.960Z,26.71
2022-09-07T10:14:04.031Z,26.36
2022-09-07T10:15:04.017Z,26.26
2022-09-07T10:16:04.091Z,26.46
2022-09-07T10:17:04.092Z,26.55
2022-09-07T10:18:04.141Z,26.78
2022-09-07T10:19:04.184Z,26.76
2022-09-07T10:20:04.224Z,26.66
2022-09-07T10:21:04.234Z,26.70
2022-09-07T10:22:04.225Z,26.96
2022-09-07T10:23:04.245Z,27.26
2022-09-07T10:24:04.250Z,27.47
2022-09-07T10:25:04.236Z,27.34
2022-09-07T10:26:04.237Z,27.58
2022-09-07T10:27:04.316Z,27.20
2022-09-07T10:28:04.380Z,26.19
2022-09-07T10:29:07.971Z,25.54
2022-09-07T10:30:06.834Z,25.04
2022-09-07T10:31:04.526Z,24.88
2022-09-07T10:32:04.500Z,24.97
2022-09-07T10:33:04.551Z,24.97
2022-09-07T10:35:05.328Z,25.62
2022-09-07T10:36:04.630Z,25.98
2022-09-07T10:37:04.644Z,26.39
2022-09-07T10:38:04.712Z,26.06
2022-09-07T10:39:04.754Z,25.89
2022-09-07T10:40:04.882Z,25.68
2022-09-07T10:41:04.875Z,25.62
2022-09-07T10:42:04.915Z,25.34
2022-09-07T10:43:21.068Z,25.18
2022-09-07T10:44:05.235Z,25.04
2022-09-07T10:45:04.997Z,25.00
2022-09-07T10:46:05.108Z,24.65
2022-09-07T10:47:05.115Z,24.58
2022-09-07T10:48:05.037Z,24.65
2022-09-07T10:49:05.081Z,24.82
2022-09-07T10:51:13.441Z,25.49
2022-09-07T10:52:05.149Z,25.71
2022-09-07T10:53:23.489Z,25.43
2022-09-07T10:55:05.202Z,26.08
2022-09-07T10:56:05.241Z,26.37
2022-09-07T10:57:05.353Z,26.42
2022-09-07T10:58:05.334Z,26.51
2022-09-07T10:59:05.385Z,26.37
2022-09-07T11:00:09.166Z,26.51
2022-09-07T11:01:05.605Z,26.73
2022-09-07T11:02:05.504Z,26.68
2022-09-07T11:04:05.633Z,26.73
2022-09-07T11:05:05.584Z,26.78
2022-09-07T11:06:06.265Z,26.89
2022-09-07T11:07:05.619Z,27.10
2022-09-07T11:08:05.697Z,27.26
2022-09-07T11:09:21.307Z,27.25
2022-09-07T11:10:05.687Z,27.25
2022-09-07T11:11:05.935Z,27.52
2022-09-07T11:12:05.817Z,27.76
2022-09-07T11:13:05.991Z,27.81
2022-09-07T11:14:12.985Z,27.68
2022-09-07T11:15:05.871Z,27.45
2022-09-07T11:16:06.343Z,27.37
2022-09-07T11:17:05.980Z,27.43
2022-09-07T11:18:05.959Z,27.29
2022-09-07T11:20:06.047Z,27.00
2022-09-07T11:21:06.004Z,26.64
2022-09-07T11:22:06.083Z,26.11
2022-09-07T11:23:06.104Z,26.03
2022-09-07T11:24:06.155Z,26.10
2022-09-07T11:26:06.226Z,26.49
2022-09-07T11:27:06.276Z,26.63
2022-09-07T11:28:06.336Z,26.71
2022-09-07T11:30:06.466Z,27.19
2022-09-07T11:31:06.513Z,27.61
2022-09-07T11:32:06.489Z,27.75
2022-09-07T11:33:06.542Z,27.93
2022-09-07T11:35:06.601Z,27.93
2022-09-07T11:36:11.421Z,27.97
2022-09-07T11:37:06.693Z,27.91
2022-09-07T11:38:06.664Z,27.68
2022-09-07T11:39:06.712Z,27.43
2022-09-07T11:40:06.897Z,27.41
2022-09-07T11:41:06.876Z,27.43
2022-09-07T11:43:11.186Z,27.34
2022-09-07T11:44:06.915Z,26.88
2022-09-07T11:45:06.897Z,27.00
2022-09-07T11:46:07.008Z,27.18
2022-09-07T11:47:06.965Z,27.23
2022-09-07T11:48:06.947Z,27.23
2022-09-07T11:49:06.982Z,26.82
2022-09-07T11:50:06.936Z,26.74
2022-09-07T11:51:06.998Z,26.79
2022-09-07T11:52:07.068Z,26.86
2022-09-07T11:53:07.079Z,27.19
2022-09-07T11:54:07.117Z,27.55
2022-09-07T11:55:07.071Z,27.60
2022-09-07T11:56:07.111Z,27.72
2022-09-07T11:57:07.182Z,27.47
2022-09-07T11:58:07.283Z,27.73
2022-09-07T11:59:07.213Z,27.86
2022-09-07T12:00:07.287Z,27.57
2022-09-07T12:01:07.234Z,27.41
2022-09-07T12:02:07.344Z,27.35
2022-09-07T12:03:07.355Z,27.16
2022-09-07T12:04:09.247Z,27.08
2022-09-07T12:05:07.306Z,27.38
2022-09-07T12:06:07.336Z,27.60
2022-09-07T12:07:07.327Z,27.91
2022-09-07T12:08:07.360Z,28.15
2022-09-07T12:09:07.378Z,28.15
2022-09-07T12:10:07.418Z,27.93
2022-09-07T12:11:07.459Z,27.95
2022-09-07T12:12:07.473Z,28.01
2022-09-07T12:13:07.529Z,27.94
2022-09-07T12:14:07.511Z,27.66
2022-09-07T12:15:07.531Z,27.61
2022-09-07T12:16:07.637Z,27.48
2022-09-07T12:17:07.622Z,27.76
2022-09-07T12:18:07.682Z,28.01
2022-09-07T12:19:07.682Z,28.23
2022-09-07T12:20:07.686Z,28.56
2022-09-07T12:21:07.683Z,29.03
2022-09-07T12:22:07.715Z,29.15
2022-09-07T12:23:07.714Z,29.46
2022-09-07T12:24:07.725Z,29.62
2022-09-07T12:25:07.756Z,29.15
2022-09-07T12:26:08.647Z,28.93
2022-09-07T12:27:07.866Z,28.49
2022-09-07T12:28:07.808Z,28.06
2022-09-07T12:29:07.817Z,27.85
2022-09-07T12:30:07.817Z,27.63
2022-09-07T12:31:07.940Z,27.88
2022-09-07T12:32:53.435Z,28.15
2022-09-07T12:33:08.032Z,28.37
2022-09-07T12:34:08.060Z,28.59
2022-09-07T12:35:08.061Z,28.82
2022-09-07T12:36:08.078Z,28.62
2022-09-07T12:37:12.300Z,28.37
2022-09-07T12:38:08.108Z,28.35
2022-09-07T12:39:08.194Z,28.46
2022-09-07T12:40:08.231Z,28.70
2022-09-07T12:41:08.174Z,29.07
2022-09-07T12:43:10.023Z,29.59
2022-09-07T12:44:08.207Z,29.39
2022-09-07T12:45:08.307Z,28.93
2022-09-07T12:46:08.341Z,28.86
2022-09-07T12:47:08.506Z,28.86
2022-09-07T12:48:08.357Z,29.00
2022-09-07T12:49:08.356Z,29.37
2022-09-07T12:50:10.143Z,29.65
2022-09-07T12:51:08.380Z,29.73
2022-09-07T12:52:15.303Z,29.95
2022-09-07T12:53:09.392Z,30.03
2022-09-07T12:54:08.480Z,29.89
2022-09-07T12:55:27.171Z,29.00
2022-09-07T12:56:16.305Z,28.78
2022-09-07T12:58:08.673Z,29.05
2022-09-07T12:59:16.069Z,29.00
2022-09-07T13:00:08.775Z,28.94
2022-09-07T13:01:09.470Z,28.84
2022-09-07T13:02:08.830Z,29.05
2022-09-07T13:03:49.397Z,29.16
2022-09-07T13:04:08.745Z,29.09
2022-09-07T13:05:08.793Z,28.87
2022-09-07T13:06:09.738Z,28.67
2022-09-07T13:07:08.847Z,28.12
2022-09-07T13:08:09.543Z,27.63
2022-09-07T13:09:08.920Z,27.33
2022-09-07T13:10:08.899Z,27.26
2022-09-07T13:11:08.969Z,27.16
2022-09-07T13:12:09.224Z,26.92
2022-09-07T13:13:08.982Z,27.61
2022-09-07T13:14:09.824Z,28.30
2022-09-07T13:15:14.610Z,28.80
2022-09-07T13:16:09.161Z,28.90
2022-09-07T13:17:16.696Z,28.71
2022-09-07T13:18:09.142Z,28.82
2022-09-07T13:19:09.242Z,28.94
2022-09-07T13:20:09.233Z,28.90
2022-09-07T13:21:09.210Z,28.71
2022-09-07T13:22:09.943Z,28.62
2022-09-07T13:23:09.247Z,29.03
2022-09-07T13:25:09.229Z,29.74
2022-09-07T13:26:09.244Z,29.50
2022-09-07T13:27:09.256Z,29.46
2022-09-07T13:28:09.299Z,29.25
2022-09-07T13:29:09.318Z,28.96
2022-09-07T13:30:09.319Z,28.52
2022-09-07T13:31:09.445Z,28.59
2022-09-07T13:32:09.437Z,28.20
2022-09-07T13:33:09.458Z,28.33
2022-09-07T13:34:09.476Z,28.77
2022-09-07T13:35:09.511Z,28.89
2022-09-07T13:36:09.582Z,29.05
2022-09-07T13:37:09.611Z,29.35
2022-09-07T13:38:09.620Z,29.50